Time;durP1;ratioP1;P1;durP2;ratioP2;P2;SDS_P1;SDS_P2;PMS_P1;PMS_P2;Temp;Humidity;BMP_temperature;BMP_pressure;BME280_temperature;BME280_humidity;BME280_pressure;Samples;Min_cycle;Max_cycle;Signal;HPM_P1;HPM_P2
2021/01/25 00:00:21;;;;;;;22.23;14.67;;;2.30;99.90;;;;;;5108465;28;20186;-77
2021/01/25 00:02:47;;;;;;;18.05;13.52;;;2.20;99.90;;;;;;5108639;28;20204;-77
2021/01/25 00:05:13;;;;;;;21.60;13.97;;;2.20;99.90;;;;;;5108578;28;20183;-77
2021/01/25 00:07:40;;;;;;;20.90;13.50;;;2.10;99.90;;;;;;5108194;28;20176;-77
2021/01/25 00:10:06;;;;;;;19.10;13.20;;;2.20;99.90;;;;;;5108057;28;20172;-77
2021/01/25 00:12:32;;;;;;;23.10;13.38;;;2.20;99.90;;;;;;5108188;28;20182;-77
2021/01/25 00:14:58;;;;;;;21.20;11.70;;;2.20;99.90;;;;;;5106136;28;20188;-77
2021/01/25 00:17:24;;;;;;;16.87;11.70;;;2.20;99.90;;;;;;5108439;28;20526;-77
2021/01/25 00:19:49;;;;;;;16.63;11.57;;;2.10;99.90;;;;;;5107584;28;20413;-77
2021/01/25 00:22:16;;;;;;;18.80;11.73;;;2.10;99.90;;;;;;5108691;28;20207;-78
2021/01/25 00:24:42;;;;;;;14.55;10.55;;;2.10;99.90;;;;;;5108299;28;20411;-77
2021/01/25 00:27:09;;;;;;;14.77;10.90;;;2.00;99.90;;;;;;5106736;28;20172;-77
2021/01/25 00:29:35;;;;;;;14.20;10.82;;;2.00;99.90;;;;;;5108276;28;20279;-78
2021/01/25 00:32:00;;;;;;;12.10;10.43;;;2.00;99.90;;;;;;5107430;28;20180;-77
2021/01/25 00:34:26;;;;;;;13.63;10.60;;;2.00;99.90;;;;;;5107257;28;20588;-78
2021/01/25 00:36:52;;;;;;;15.33;10.60;;;2.00;99.90;;;;;;5107420;28;20660;-78
2021/01/25 00:39:18;;;;;;;16.57;11.83;;;2.00;99.90;;;;;;5108447;28;20412;-77
2021/01/25 00:41:43;;;;;;;12.93;9.00;;;1.90;99.90;;;;;;5107774;28;20253;-78
2021/01/25 00:44:09;;;;;;;12.20;9.67;;;2.00;99.90;;;;;;5107963;28;20535;-77
2021/01/25 00:46:35;;;;;;;12.10;9.17;;;1.90;99.90;;;;;;5105706;28;20843;-78
2021/01/25 00:49:01;;;;;;;14.90;9.80;;;1.90;99.90;;;;;;5108590;28;20429;-78
2021/01/25 00:51:27;;;;;;;11.50;8.27;;;1.80;99.90;;;;;;5108224;28;20526;-77
2021/01/25 00:53:52;;;;;;;8.53;6.97;;;1.90;99.90;;;;;;5106479;28;20258;-77
2021/01/25 00:56:18;;;;;;;11.80;8.70;;;1.80;99.90;;;;;;5079352;28;784673;-77
2021/01/25 00:58:44;;;;;;;13.50;8.80;;;1.90;99.90;;;;;;5109031;28;20230;-78
2021/01/25 01:01:09;;;;;;;14.10;7.30;;;1.80;99.90;;;;;;5108754;28;20228;-77
2021/01/25 01:03:35;;;;;;;10.73;7.30;;;1.80;99.90;;;;;;5107685;28;20564;-78
2021/01/25 01:06:02;;;;;;;11.60;7.30;;;1.70;99.90;;;;;;5108726;28;20187;-78
2021/01/25 01:08:27;;;;;;;10.30;7.28;;;1.70;99.90;;;;;;5106338;28;20420;-78
2021/01/25 01:10:53;;;;;;;10.70;7.50;;;1.70;99.90;;;;;;5107543;28;20179;-78
2021/01/25 01:13:19;;;;;;;10.57;7.50;;;1.70;99.90;;;;;;5108714;28;20179;-77
2021/01/25 01:15:45;;;;;;;11.60;7.23;;;1.70;99.90;;;;;;5108530;28;20527;-78
2021/01/25 01:18:11;;;;;;;10.90;8.17;;;1.90;99.90;;;;;;5108854;28;20204;-78
2021/01/25 01:20:37;;;;;;;11.77;7.78;;;1.80;99.90;;;;;;5106882;28;20180;-78
2021/01/25 01:23:02;;;;;;;11.40;7.87;;;1.80;99.90;;;;;;5106177;28;20729;-77
2021/01/25 01:25:28;;;;;;;10.63;7.70;;;1.80;99.90;;;;;;5106567;28;20180;-77
2021/01/25 01:27:53;;;;;;;10.00;8.13;;;1.90;99.90;;;;;;5108293;28;20168;-78
2021/01/25 01:30:19;;;;;;;12.13;7.97;;;1.80;99.90;;;;;;5109049;28;20184;-78
2021/01/25 01:32:45;;;;;;;12.32;8.95;;;1.70;99.90;;;;;;5107939;28;20966;-78
2021/01/25 01:35:11;;;;;;;15.40;10.83;;;1.70;99.90;;;;;;5107137;28;20226;-78
2021/01/25 01:37:37;;;;;;;14.63;10.40;;;1.60;99.90;;;;;;5107759;28;20658;-78
2021/01/25 01:40:09;;;;;;;14.73;10.93;;;1.70;99.90;;;;;;5107811;27;20402;-77
2021/01/25 01:42:36;;;;;;;13.27;11.05;;;1.70;99.90;;;;;;5106475;28;20275;-78
2021/01/25 01:45:02;;;;;;;13.43;9.63;;;1.80;99.90;;;;;;5108453;28;20743;-78
2021/01/25 01:47:30;;;;;;;12.77;10.40;;;1.70;99.90;;;;;;5108190;28;20470;-78
2021/01/25 01:49:56;;;;;;;14.73;10.30;;;1.80;99.90;;;;;;5106904;28;20209;-78
2021/01/25 01:52:22;;;;;;;11.80;9.30;;;1.90;99.90;;;;;;5107330;28;20179;-78
2021/01/25 01:54:49;;;;;;;13.93;9.10;;;1.90;99.90;;;;;;5107439;28;20184;-78
2021/01/25 01:57:15;;;;;;;14.13;10.55;;;1.90;99.90;;;;;;5107312;28;20508;-77
2021/01/25 01:59:41;;;;;;;13.43;10.53;;;1.90;99.90;;;;;;5107814;28;20199;-78
2021/01/25 02:02:06;;;;;;;14.57;10.40;;;1.90;99.90;;;;;;5107435;28;20233;-77
2021/01/25 02:04:33;;;;;;;15.00;11.00;;;1.80;99.90;;;;;;5107194;28;20295;-78
2021/01/25 02:07:05;;;;;;;12.45;8.98;;;1.90;99.90;;;;;;5107567;28;20678;-78
2021/01/25 02:09:34;;;;;;;11.07;9.80;;;2.10;99.90;;;;;;5106665;28;20192;-78
2021/01/25 02:12:03;;;;;;;12.48;9.18;;;1.90;99.90;;;;;;5106161;28;20186;-78
2021/01/25 02:14:29;;;;;;;12.85;8.55;;;1.80;99.90;;;;;;5106250;28;20187;-78
2021/01/25 02:16:55;;;;;;;12.77;9.13;;;1.70;99.90;;;;;;5107323;28;20640;-78
2021/01/25 02:19:29;;;;;;;11.40;7.70;;;1.90;99.90;;;;;;5106491;28;20187;-78
2021/01/25 02:22:05;;;;;;;11.70;7.78;;;1.80;99.90;;;;;;5105808;28;20235;-78
2021/01/25 02:24:45;;;;;;;12.10;9.40;;;1.60;99.90;;;;;;5105846;28;20259;-78
2021/01/25 02:27:26;;;;;;;11.93;6.97;;;1.80;99.90;;;;;;5107266;28;20152;-78
2021/01/25 02:29:52;;;;;;;8.00;6.78;;;1.90;99.90;;;;;;5106014;28;20176;-77
2021/01/25 02:32:18;;;;;;;8.13;7.20;;;1.90;99.90;;;;;;5106954;28;20175;-78
2021/01/25 02:34:44;;;;;;;11.50;6.90;;;1.80;99.90;;;;;;5106887;28;20470;-77
2021/01/25 02:37:10;;;;;;;8.37;6.80;;;1.70;99.90;;;;;;5108247;28;20233;-78
2021/01/25 02:39:37;;;;;;;8.10;5.97;;;2.00;99.90;;;;;;5106976;28;20428;-78
2021/01/25 02:42:04;;;;;;;7.10;6.40;;;2.00;99.90;;;;;;5104998;28;20203;-78
2021/01/25 02:44:31;;;;;;;7.50;5.60;;;1.80;99.90;;;;;;5107506;28;20636;-78
2021/01/25 02:46:58;;;;;;;6.63;5.55;;;1.80;99.90;;;;;;5105756;28;20605;-77
2021/01/25 02:49:23;;;;;;;6.38;5.75;;;1.70;99.90;;;;;;5106313;28;20184;-78
2021/01/25 02:51:49;;;;;;;6.40;5.13;;;1.90;99.90;;;;;;5106587;28;20262;-77
2021/01/25 02:54:15;;;;;;;6.53;5.80;;;1.80;99.90;;;;;;5106909;28;20407;-78
2021/01/25 02:56:41;;;;;;;6.13;5.53;;;1.90;99.90;;;;;;5105841;28;20442;-78
2021/01/25 02:59:08;;;;;;;6.13;5.53;;;1.80;99.90;;;;;;5105088;28;20692;-78
2021/01/25 03:01:34;;;;;;;7.40;6.60;;;1.80;99.90;;;;;;5106515;28;20191;-78
2021/01/25 03:04:00;;;;;;;7.47;6.40;;;1.60;99.90;;;;;;5106837;28;20183;-78
2021/01/25 03:06:26;;;;;;;7.97;7.15;;;1.60;99.90;;;;;;5105208;28;20858;-77
2021/01/25 03:08:52;;;;;;;8.07;6.30;;;1.60;99.90;;;;;;5107007;28;20301;-77
2021/01/25 03:11:19;;;;;;;9.97;7.80;;;1.50;99.90;;;;;;5105641;28;20187;-78
2021/01/25 03:13:46;;;;;;;10.13;7.20;;;1.50;99.90;;;;;;5105855;28;20175;-78
2021/01/25 03:16:15;;;;;;;11.30;7.82;;;1.60;99.90;;;;;;5105307;28;20658;-78
2021/01/25 03:18:42;;;;;;;11.10;9.02;;;1.50;99.90;;;;;;5107192;28;20224;-78
2021/01/25 03:21:07;;;;;;;11.80;8.32;;;1.60;99.90;;;;;;5106526;28;20176;-78
2021/01/25 03:23:34;;;;;;;11.60;8.57;;;1.50;99.90;;;;;;5106048;28;20224;-78
2021/01/25 03:26:00;;;;;;;10.35;8.50;;;1.50;99.90;;;;;;5106908;28;20650;-78
2021/01/25 03:28:26;;;;;;;11.65;9.18;;;1.50;99.90;;;;;;5106292;28;20180;-78
2021/01/25 03:30:51;;;;;;;10.97;8.43;;;1.60;99.90;;;;;;5105677;28;20172;-78
2021/01/25 03:33:17;;;;;;;12.03;9.27;;;1.50;99.90;;;;;;5107013;28;20561;-78
2021/01/25 03:35:43;;;;;;;10.17;9.10;;;1.40;99.90;;;;;;5106441;28;20541;-79
2021/01/25 03:38:08;;;;;;;11.73;9.60;;;1.50;99.90;;;;;;5106167;28;20215;-78
2021/01/25 03:40:34;;;;;;;11.73;9.77;;;1.60;99.90;;;;;;5106398;28;20253;-78
2021/01/25 03:43:00;;;;;;;12.90;9.20;;;1.60;99.90;;;;;;5106781;28;20218;-78
2021/01/25 03:45:25;;;;;;;11.30;9.43;;;1.50;99.90;;;;;;5106158;28;20180;-78
2021/01/25 03:47:51;;;;;;;10.83;8.80;;;1.40;99.90;;;;;;5107671;28;20430;-78
2021/01/25 03:50:17;;;;;;;10.40;8.43;;;1.50;99.90;;;;;;5110025;28;20628;-78
2021/01/25 03:52:43;;;;;;;12.38;9.82;;;1.60;99.90;;;;;;5110034;28;20208;-78
2021/01/25 03:55:10;;;;;;;11.43;9.30;;;1.50;99.90;;;;;;5108516;28;20188;-78
2021/01/25 03:57:36;;;;;;;13.48;11.50;;;1.40;99.90;;;;;;5108209;28;20576;-78
2021/01/25 04:00:06;;;;;;;15.25;10.10;;;1.50;99.90;;;;;;5109997;28;20188;-79
2021/01/25 04:02:32;;;;;;;13.68;10.45;;;1.60;99.90;;;;;;5107273;28;20210;-78
2021/01/25 04:04:57;;;;;;;16.73;12.37;;;1.50;99.90;;;;;;5109794;28;20172;-78
2021/01/25 04:07:23;;;;;;;14.47;11.60;;;1.60;99.90;;;;;;5109972;28;20416;-78
2021/01/25 04:09:49;;;;;;;14.00;11.13;;;1.50;99.90;;;;;;5109591;28;20248;-78
2021/01/25 04:12:14;;;;;;;14.83;12.47;;;1.50;99.90;;;;;;5109392;28;20197;-78
2021/01/25 04:14:40;;;;;;;14.87;11.93;;;1.60;99.90;;;;;;5109794;28;20180;-78
2021/01/25 04:17:06;;;;;;;15.20;11.53;;;1.50;99.90;;;;;;5109410;28;20180;-78
2021/01/25 04:19:31;;;;;;;20.13;12.10;;;1.50;99.90;;;;;;5108943;28;20176;-78
2021/01/25 04:21:57;;;;;;;16.40;11.60;;;1.60;99.90;;;;;;5108143;28;20566;-78
2021/01/25 04:24:22;;;;;;;18.07;12.50;;;1.60;99.90;;;;;;5109245;28;20688;-78
2021/01/25 04:26:48;;;;;;;18.93;13.50;;;1.50;99.90;;;;;;5109025;28;20245;-78
2021/01/25 04:29:14;;;;;;;15.97;12.37;;;1.50;99.90;;;;;;5108420;28;20176;-78
2021/01/25 04:31:40;;;;;;;18.60;13.10;;;1.50;99.90;;;;;;5109339;28;20215;-78
2021/01/25 04:34:06;;;;;;;18.60;13.57;;;1.60;99.90;;;;;;5109895;28;20184;-78
2021/01/25 04:36:32;;;;;;;15.87;12.63;;;1.60;99.90;;;;;;5108034;28;20596;-78
2021/01/25 04:38:58;;;;;;;16.58;12.93;;;1.60;99.90;;;;;;5109919;28;20313;-79
2021/01/25 04:41:25;;;;;;;18.02;12.60;;;1.70;99.90;;;;;;5108234;28;20212;-78
2021/01/25 04:43:51;;;;;;;15.05;11.50;;;1.80;99.90;;;;;;5108976;28;20172;-78
2021/01/25 04:46:16;;;;;;;15.40;11.97;;;1.80;99.90;;;;;;5107945;28;20558;-78
2021/01/25 04:48:45;;;;;;;17.10;13.00;;;1.80;99.90;;;;;;5109369;28;20378;-78
2021/01/25 04:51:13;;;;;;;17.30;11.45;;;2.00;99.90;;;;;;5108211;28;20662;-78
2021/01/25 04:53:40;;;;;;;17.38;12.45;;;2.10;99.90;;;;;;5108606;28;20172;-78
2021/01/25 04:56:07;;;;;;;17.25;11.90;;;2.20;99.90;;;;;;5108880;28;20248;-78
2021/01/25 04:58:33;;;;;;;17.40;11.20;;;2.20;99.90;;;;;;5107700;28;20176;-78
2021/01/25 05:01:00;;;;;;;15.32;11.38;;;2.00;99.90;;;;;;5107361;28;20180;-78
2021/01/25 05:03:26;;;;;;;14.52;11.85;;;2.10;99.90;;;;;;5107147;28;20215;-78
2021/01/25 05:05:52;;;;;;;12.63;9.60;;;2.10;99.90;;;;;;5108598;28;20172;-78
2021/01/25 05:08:17;;;;;;;17.53;13.30;;;2.00;99.90;;;;;;5106050;28;20928;-78
2021/01/25 05:10:43;;;;;;;14.30;11.70;;;1.90;99.90;;;;;;5107624;28;20186;-78
2021/01/25 05:13:09;;;;;;;14.33;11.87;;;1.90;99.90;;;;;;5108122;28;20198;-78
2021/01/25 05:15:35;;;;;;;17.13;13.63;;;1.90;99.90;;;;;;5108260;28;20228;-78
2021/01/25 05:18:03;;;;;;;14.63;11.68;;;1.90;99.90;;;;;;5108626;28;20190;-78
2021/01/25 05:20:31;;;;;;;12.25;10.77;;;1.90;99.90;;;;;;5107699;28;20184;-78
2021/01/25 05:22:59;;;;;;;16.15;12.02;;;1.80;99.90;;;;;;5106995;28;20680;-78
2021/01/25 05:25:33;;;;;;;15.30;11.73;;;1.80;99.90;;;;;;5105624;28;20244;-78
2021/01/25 05:27:59;;;;;;;15.57;12.02;;;1.80;99.90;;;;;;5108879;28;20543;-79
2021/01/25 05:30:26;;;;;;;15.05;12.00;;;1.90;99.90;;;;;;5109291;28;20926;-79
2021/01/25 05:32:57;;;;;;;14.95;12.00;;;1.90;99.90;;;;;;5108828;28;21004;-79
2021/01/25 05:35:31;;;;;;;13.63;11.38;;;1.90;99.90;;;;;;5108444;28;20186;-78
2021/01/25 05:37:59;;;;;;;14.45;10.90;;;1.90;99.90;;;;;;5107953;28;20172;-78
2021/01/25 05:40:27;;;;;;;13.75;9.27;;;1.90;99.90;;;;;;5105851;28;20622;-78
2021/01/25 05:42:53;;;;;;;17.85;10.38;;;2.10;99.90;;;;;;5108231;28;20250;-78
2021/01/25 05:45:20;;;;;;;12.65;9.77;;;2.60;99.90;;;;;;5108732;28;20180;-78
2021/01/25 05:47:51;;;;;;;14.65;10.98;;;3.20;99.90;;;;;;5106414;28;20176;-79
2021/01/25 05:50:27;;;;;;;10.40;8.63;;;3.40;99.90;;;;;;5106164;28;20186;-78
2021/01/25 05:52:54;;;;;;;12.80;9.82;;;3.50;98.50;;;;;;5108309;28;20172;-78
2021/01/25 05:55:20;;;;;;;15.27;10.25;;;3.30;98.60;;;;;;5108093;28;20183;-79
2021/01/25 05:57:46;;;;;;;12.88;10.80;;;2.70;99.70;;;;;;5105032;28;20223;-79
2021/01/25 06:00:12;;;;;;;16.23;11.20;;;2.50;99.90;;;;;;5106886;28;20237;-78
2021/01/25 06:02:42;;;;;;;10.73;9.57;;;2.40;99.90;;;;;;5123234;27;20640;-78
2021/01/25 06:05:11;;;;;;;10.60;8.85;;;2.30;99.90;;;;;;5121167;27;20518;-78
2021/01/25 06:07:40;;;;;;;10.98;9.68;;;2.20;99.90;;;;;;5114370;27;20183;-78
2021/01/25 06:10:10;;;;;;;15.88;11.05;;;2.10;99.90;;;;;;5125309;27;20175;-78
2021/01/25 06:12:40;;;;;;;12.55;10.93;;;2.20;99.90;;;;;;5131252;27;20271;-79
2021/01/25 06:15:12;;;;;;;14.77;11.10;;;2.10;99.90;;;;;;5130813;27;20156;-79
2021/01/25 06:17:38;;;;;;;13.38;10.57;;;2.00;99.90;;;;;;5131720;27;20179;-78
2021/01/25 06:20:09;;;;;;;12.80;10.40;;;2.10;99.90;;;;;;5119075;27;20759;-78
2021/01/25 06:22:36;;;;;;;12.63;9.93;;;2.10;99.90;;;;;;5110570;28;20463;-78
2021/01/25 06:25:04;;;;;;;10.65;9.02;;;2.10;99.90;;;;;;5103435;28;20173;-79
2021/01/25 06:27:31;;;;;;;13.65;10.15;;;2.10;99.90;;;;;;5109616;28;20317;-77
2021/01/25 06:30:01;;;;;;;10.65;8.75;;;2.00;99.90;;;;;;5088384;28;20226;-77
2021/01/25 06:32:40;;;;;;;14.25;12.23;;;2.00;99.90;;;;;;5101907;28;20232;-77
2021/01/25 06:35:07;;;;;;;12.02;9.07;;;1.90;99.90;;;;;;5104836;28;20901;-78
2021/01/25 06:37:34;;;;;;;13.73;10.60;;;1.90;99.90;;;;;;5119881;27;20653;-78
2021/01/25 06:40:10;;;;;;;12.15;10.52;;;1.90;99.90;;;;;;5113386;27;20179;-78
2021/01/25 06:42:38;;;;;;;14.35;11.90;;;1.80;99.90;;;;;;5110639;28;20228;-77
2021/01/25 06:45:05;;;;;;;14.45;11.70;;;1.80;99.90;;;;;;5110543;28;20259;-77
2021/01/25 06:47:34;;;;;;;16.85;13.05;;;1.80;99.90;;;;;;5091092;28;20838;-77
2021/01/25 06:50:02;;;;;;;17.10;11.48;;;1.80;99.90;;;;;;5097035;28;20208;-77
2021/01/25 06:52:30;;;;;;;16.67;12.43;;;1.90;99.90;;;;;;5110227;28;20194;-77
2021/01/25 06:55:01;;;;;;;12.52;10.35;;;1.90;99.90;;;;;;5109604;28;20184;-77
2021/01/25 06:57:27;;;;;;;14.20;12.70;;;1.80;99.90;;;;;;5110154;28;20227;-78
2021/01/25 06:59:54;;;;;;;12.77;10.10;;;1.80;99.90;;;;;;5103811;28;20512;-77
2021/01/25 07:02:23;;;;;;;15.32;11.93;;;1.80;99.90;;;;;;5089329;28;20710;-78
2021/01/25 07:04:50;;;;;;;15.23;11.23;;;1.90;99.90;;;;;;5096428;28;20176;-78
2021/01/25 07:07:26;;;;;;;10.85;9.70;;;1.90;99.90;;;;;;5108848;28;20258;-77
2021/01/25 07:09:53;;;;;;;12.70;10.85;;;1.80;99.90;;;;;;5119930;28;20592;-77
2021/01/25 07:12:21;;;;;;;12.75;10.15;;;1.80;99.90;;;;;;5128144;27;20511;-78
2021/01/25 07:14:47;;;;;;;11.48;8.43;;;1.80;99.90;;;;;;5110993;27;20539;-78
2021/01/25 07:17:13;;;;;;;16.50;14.00;;;1.90;99.90;;;;;;5102936;28;20179;-77
2021/01/25 07:19:39;;;;;;;10.57;9.48;;;1.80;99.90;;;;;;5099205;28;20421;-78
2021/01/25 07:22:07;;;;;;;37.00;33.07;;;1.80;99.90;;;;;;5111080;28;20202;-77
2021/01/25 07:24:36;;;;;;;12.40;10.98;;;1.90;99.90;;;;;;5103549;28;20169;-77
2021/01/25 07:27:01;;;;;;;19.80;17.73;;;1.90;99.90;;;;;;5111867;27;20263;-78
2021/01/25 07:29:28;;;;;;;19.23;15.50;;;1.90;99.90;;;;;;5111512;27;20267;-77
2021/01/25 07:31:54;;;;;;;11.02;8.73;;;1.90;99.90;;;;;;5100148;27;20203;-77
2021/01/25 07:34:20;;;;;;;10.77;7.90;;;2.00;99.90;;;;;;5106306;28;20177;-77
2021/01/25 07:36:46;;;;;;;11.07;9.83;;;2.10;99.90;;;;;;5101237;27;20179;-77
2021/01/25 07:39:15;;;;;;;9.88;8.75;;;2.20;99.90;;;;;;5104276;28;20447;-77
2021/01/25 07:41:42;;;;;;;9.25;7.72;;;2.20;99.90;;;;;;5109538;28;20204;-77
2021/01/25 07:44:09;;;;;;;10.18;7.43;;;2.10;99.90;;;;;;5108431;28;20175;-76
2021/01/25 07:46:35;;;;;;;10.65;8.95;;;2.30;99.90;;;;;;5108211;28;20180;-79
2021/01/25 07:49:01;;;;;;;8.90;7.47;;;2.20;99.90;;;;;;5106311;28;20180;-77
2021/01/25 07:51:29;;;;;;;9.90;7.67;;;2.20;99.90;;;;;;5106068;28;20187;-76
2021/01/25 07:53:56;;;;;;;8.88;7.80;;;2.20;99.90;;;;;;5107086;28;20184;-78
2021/01/25 07:56:24;;;;;;;11.55;10.32;;;2.20;99.90;;;;;;5109442;28;20621;-78
2021/01/25 07:58:50;;;;;;;13.18;10.43;;;2.20;99.90;;;;;;5110319;28;20181;-78
2021/01/25 08:01:25;;;;;;;13.50;10.50;;;2.20;99.90;;;;;;5109887;28;20179;-78
2021/01/25 08:03:58;;;;;;;12.85;9.48;;;2.20;99.90;;;;;;5111102;28;20176;-78
2021/01/25 08:06:25;;;;;;;10.90;8.68;;;2.10;99.90;;;;;;5107489;28;20187;-78
2021/01/25 08:08:51;;;;;;;18.70;12.60;;;2.00;99.90;;;;;;5109180;27;20172;-78
2021/01/25 08:11:19;;;;;;;15.52;11.55;;;2.10;99.90;;;;;;5102874;28;20195;-78
2021/01/25 08:14:00;;;;;;;13.73;9.85;;;2.20;99.90;;;;;;5107427;28;20172;-78
2021/01/25 08:16:35;;;;;;;14.85;10.90;;;2.20;99.90;;;;;;5097103;28;20187;-78
2021/01/25 08:19:10;;;;;;;17.33;13.45;;;2.20;99.90;;;;;;5091345;28;20175;-78
2021/01/25 08:21:41;;;;;;;15.10;11.38;;;2.20;99.90;;;;;;5096563;28;20203;-78
2021/01/25 08:24:11;;;;;;;33.28;20.75;;;2.20;99.90;;;;;;5109237;27;20179;-78
2021/01/25 08:26:38;;;;;;;17.38;13.82;;;2.20;99.90;;;;;;5103653;28;20182;-78
2021/01/25 08:29:13;;;;;;;23.35;19.20;;;2.10;99.90;;;;;;5105966;28;20267;-78
2021/01/25 08:31:42;;;;;;;16.15;13.05;;;2.00;99.90;;;;;;5109340;27;20190;-78
2021/01/25 08:34:23;;;;;;;17.98;13.80;;;2.00;99.90;;;;;;5111287;27;20183;-78
2021/01/25 08:37:10;;;;;;;14.18;12.23;;;2.10;99.90;;;;;;5090986;28;20663;-78
2021/01/25 08:39:44;;;;;;;14.48;11.68;;;2.10;99.90;;;;;;5098755;28;20203;-78
2021/01/25 08:42:34;;;;;;;15.73;12.15;;;2.20;99.90;;;;;;5124930;27;20230;-78
2021/01/25 08:45:10;;;;;;;15.25;12.20;;;2.20;99.90;;;;;;5113093;27;20191;-79
2021/01/25 08:47:37;;;;;;;12.60;11.05;;;2.10;99.90;;;;;;5091778;28;20536;-78
2021/01/25 08:50:17;;;;;;;14.77;12.25;;;2.20;99.90;;;;;;5091375;28;20621;-78
2021/01/25 08:52:43;;;;;;;12.93;11.18;;;2.40;99.90;;;;;;5107398;28;20812;-79
2021/01/25 08:55:34;;;;;;;14.13;11.93;;;2.20;99.90;;;;;;5097652;28;20183;-79
2021/01/25 08:57:59;;;;;;;15.85;12.70;;;2.30;99.90;;;;;;5090594;28;21061;-79
2021/01/25 09:00:25;;;;;;;17.83;12.60;;;2.30;99.90;;;;;;5103847;28;20184;-79
2021/01/25 09:02:56;;;;;;;15.73;12.97;;;2.40;99.90;;;;;;5095009;27;20204;-79
2021/01/25 09:05:22;;;;;;;16.63;12.63;;;2.30;99.90;;;;;;5097294;28;20208;-79
2021/01/25 09:07:51;;;;;;;16.30;12.73;;;2.50;99.90;;;;;;5112189;27;20206;-79
2021/01/25 09:10:17;;;;;;;24.00;18.50;;;2.50;99.90;;;;;;5114910;27;20289;-78
2021/01/25 09:12:42;;;;;;;14.40;11.57;;;2.50;99.90;;;;;;5117150;27;20294;-79
2021/01/25 09:15:09;;;;;;;18.70;15.30;;;2.60;99.90;;;;;;5110240;28;20412;-78
2021/01/25 09:17:36;;;;;;;28.70;24.88;;;2.60;99.90;;;;;;5112425;27;20188;-78
2021/01/25 09:20:03;;;;;;;25.45;21.08;;;2.70;99.90;;;;;;5111537;27;20236;-78
2021/01/25 09:22:29;;;;;;;23.55;19.80;;;2.60;99.90;;;;;;5115270;27;20215;-77
2021/01/25 09:24:55;;;;;;;19.57;15.57;;;2.70;99.90;;;;;;5098278;28;20174;-77
2021/01/25 09:27:20;;;;;;;41.83;30.73;;;2.60;99.90;;;;;;5106185;27;20451;-78
2021/01/25 09:29:46;;;;;;;33.10;26.90;;;2.60;99.90;;;;;;5103089;27;20181;-77
2021/01/25 09:32:12;;;;;;;23.13;19.07;;;2.60;99.90;;;;;;5108089;28;20184;-78
2021/01/25 09:34:37;;;;;;;21.17;16.70;;;2.70;99.90;;;;;;5101838;28;20184;-78
2021/01/25 09:37:05;;;;;;;16.67;13.67;;;2.80;99.90;;;;;;5107334;28;20202;-78
2021/01/25 09:39:30;;;;;;;19.23;16.05;;;2.80;99.90;;;;;;5105135;28;20255;-78
2021/01/25 09:41:56;;;;;;;18.50;11.80;;;2.90;99.90;;;;;;5105065;28;20283;-78
2021/01/25 09:44:22;;;;;;;16.63;13.00;;;3.10;99.90;;;;;;5103954;28;20611;-78
2021/01/25 09:46:47;;;;;;;13.13;11.13;;;3.40;99.90;;;;;;5120340;27;20186;-78
2021/01/25 09:49:13;;;;;;;12.83;11.50;;;3.60;99.90;;;;;;5105945;27;20211;-78
2021/01/25 09:51:41;;;;;;;10.37;9.00;;;3.90;99.90;;;;;;5101205;28;20190;-77
2021/01/25 09:54:06;;;;;;;10.35;9.30;;;4.10;99.90;;;;;;5105859;28;20188;-78
2021/01/25 09:56:32;;;;;;;12.00;10.77;;;4.40;99.90;;;;;;5091254;28;20899;-78
2021/01/25 09:58:57;;;;;;;10.37;9.20;;;4.40;99.70;;;;;;5095944;28;20194;-78
2021/01/25 10:01:23;;;;;;;12.90;9.77;;;4.50;98.90;;;;;;5110296;28;20187;-77
2021/01/25 10:03:49;;;;;;;9.73;8.88;;;4.80;99.40;;;;;;5109482;28;20167;-78
2021/01/25 10:06:15;;;;;;;13.47;12.10;;;4.80;99.00;;;;;;5103414;28;20187;-77
2021/01/25 10:08:41;;;;;;;10.65;9.65;;;5.10;98.50;;;;;;5093678;28;20179;-77
2021/01/25 10:11:07;;;;;;;12.63;11.30;;;5.40;97.80;;;;;;5098905;28;20860;-79
2021/01/25 10:13:34;;;;;;;8.60;7.18;;;5.20;97.30;;;;;;5092828;28;20180;-78
2021/01/25 10:16:00;;;;;;;8.27;7.47;;;5.40;97.50;;;;;;5098856;28;20203;-78
2021/01/25 10:18:26;;;;;;;19.30;17.58;;;5.50;96.70;;;;;;5111911;27;20201;-78
2021/01/25 10:20:51;;;;;;;24.75;22.42;;;5.60;97.30;;;;;;5090606;28;20263;-78
2021/01/25 10:23:17;;;;;;;7.27;6.43;;;5.40;97.10;;;;;;5096779;28;20596;-78
2021/01/25 10:25:43;;;;;;;9.77;8.73;;;5.40;96.70;;;;;;5103741;28;20196;-78
2021/01/25 10:28:09;;;;;;;12.97;11.87;;;5.40;98.00;;;;;;5099193;28;20214;-78
2021/01/25 10:30:35;;;;;;;10.30;8.00;;;5.60;97.20;;;;;;5103203;28;20920;-78
2021/01/25 10:33:00;;;;;;;10.43;9.43;;;5.60;96.40;;;;;;5091084;28;20191;-78
2021/01/25 10:35:27;;;;;;;9.50;8.50;;;5.50;96.20;;;;;;5106402;28;20199;-78
2021/01/25 10:37:53;;;;;;;10.95;9.85;;;5.80;96.30;;;;;;5109335;28;20632;-78
2021/01/25 10:40:19;;;;;;;12.13;10.37;;;5.60;96.60;;;;;;5106937;27;20233;-78
2021/01/25 10:42:45;;;;;;;9.23;8.30;;;5.70;96.70;;;;;;5109914;28;20952;-77
2021/01/25 10:45:12;;;;;;;11.53;10.43;;;5.80;96.40;;;;;;5097687;28;20177;-78
2021/01/25 10:47:39;;;;;;;9.73;8.68;;;5.50;95.40;;;;;;5116856;27;20454;-78
2021/01/25 10:50:10;;;;;;;11.48;9.45;;;5.70;96.00;;;;;;5110857;28;20187;-78
2021/01/25 10:52:36;;;;;;;10.95;9.80;;;5.90;96.60;;;;;;5111222;28;20198;-78
2021/01/25 10:55:02;;;;;;;11.00;10.00;;;5.90;95.70;;;;;;5107204;28;20549;-78
2021/01/25 10:57:28;;;;;;;9.00;7.60;;;5.80;95.40;;;;;;5112435;27;20234;-77
2021/01/25 10:59:53;;;;;;;8.57;7.77;;;5.70;95.40;;;;;;5111365;28;20175;-78
2021/01/25 11:02:19;;;;;;;9.30;8.10;;;5.80;95.40;;;;;;5096002;28;20192;-77
2021/01/25 11:04:45;;;;;;;11.43;10.30;;;5.80;96.30;;;;;;5094223;28;20530;-77
2021/01/25 11:07:11;;;;;;;10.45;9.20;;;6.00;96.40;;;;;;5092036;28;20466;-78
2021/01/25 11:09:37;;;;;;;11.70;10.60;;;6.00;95.70;;;;;;5104043;27;20948;-78
2021/01/25 11:12:03;;;;;;;10.23;9.33;;;5.90;96.50;;;;;;5096139;28;20782;-78
2021/01/25 11:14:29;;;;;;;10.68;9.55;;;5.60;96.20;;;;;;5117166;27;20195;-77
2021/01/25 11:16:54;;;;;;;8.70;7.80;;;5.80;96.30;;;;;;5102706;28;20205;-77
2021/01/25 11:19:20;;;;;;;10.13;9.23;;;5.80;96.60;;;;;;5111433;28;20183;-77
2021/01/25 11:21:46;;;;;;;15.10;13.60;;;5.80;95.80;;;;;;5103877;27;20199;-77
2021/01/25 11:24:11;;;;;;;11.90;10.70;;;5.90;95.90;;;;;;5106036;28;20178;-77
2021/01/25 11:26:39;;;;;;;9.93;9.00;;;6.10;96.40;;;;;;5096454;28;20176;-78
2021/01/25 11:29:07;;;;;;;9.82;8.57;;;5.90;95.30;;;;;;5121505;27;20194;-77
2021/01/25 11:31:32;;;;;;;9.98;8.98;;;5.80;96.40;;;;;;5092763;28;20267;-77
2021/01/25 11:33:58;;;;;;;22.43;17.63;;;6.00;95.80;;;;;;5096914;28;20704;-77
2021/01/25 11:36:24;;;;;;;9.63;8.07;;;5.90;96.10;;;;;;5103713;28;20172;-78
2021/01/25 11:38:50;;;;;;;9.10;8.20;;;6.00;95.80;;;;;;5103026;28;20620;-77
2021/01/25 11:41:16;;;;;;;10.27;8.73;;;6.10;95.70;;;;;;5117100;27;20226;-77
2021/01/25 11:43:42;;;;;;;9.77;7.97;;;6.20;96.50;;;;;;5113774;27;20460;-76
2021/01/25 11:46:07;;;;;;;8.73;7.83;;;6.20;95.00;;;;;;5108215;28;20387;-77
2021/01/25 11:48:33;;;;;;;10.17;9.20;;;6.20;95.00;;;;;;5111877;28;20204;-77
2021/01/25 11:50:58;;;;;;;9.70;8.70;;;6.20;94.90;;;;;;5099573;27;20710;-77
2021/01/25 11:53:24;;;;;;;11.30;10.20;;;6.30;94.40;;;;;;5107906;27;20187;-77
2021/01/25 11:55:50;;;;;;;8.97;7.80;;;6.20;95.00;;;;;;5116219;27;20184;-77
2021/01/25 11:58:15;;;;;;;9.73;8.80;;;6.30;94.20;;;;;;5108258;28;20186;-77
2021/01/25 12:00:41;;;;;;;8.87;8.00;;;6.40;94.30;;;;;;5089964;28;20267;-76
2021/01/25 12:03:07;;;;;;;9.00;8.03;;;6.60;94.00;;;;;;5088118;28;20219;-77
2021/01/25 12:05:33;;;;;;;15.90;13.70;;;6.60;94.10;;;;;;5087362;28;20446;-77
2021/01/25 12:07:59;;;;;;;9.00;8.10;;;6.70;94.70;;;;;;5084782;28;20421;-77
2021/01/25 12:10:25;;;;;;;10.77;9.77;;;6.80;94.40;;;;;;5095319;28;20176;-77
2021/01/25 12:12:51;;;;;;;11.13;10.13;;;6.70;94.40;;;;;;5087319;28;20173;-77
2021/01/25 12:15:17;;;;;;;9.87;8.87;;;6.60;94.30;;;;;;5098183;28;20516;-76
2021/01/25 12:17:42;;;;;;;9.07;8.27;;;6.50;94.70;;;;;;5107268;28;20187;-77
2021/01/25 12:20:08;;;;;;;9.50;8.63;;;6.80;94.60;;;;;;5103848;28;20634;-77
2021/01/25 12:22:34;;;;;;;8.45;7.75;;;6.70;93.60;;;;;;5089259;28;20211;-77
2021/01/25 12:25:00;;;;;;;7.80;7.10;;;6.50;93.60;;;;;;5096410;27;20179;-77
2021/01/25 12:27:26;;;;;;;8.90;8.10;;;6.60;94.10;;;;;;5093545;27;20349;-77
2021/01/25 12:29:51;;;;;;;9.77;7.77;;;6.40;94.30;;;;;;5087383;28;20207;-76
2021/01/25 12:32:17;;;;;;;9.43;7.93;;;6.40;95.00;;;;;;5088164;28;20820;-76
2021/01/25 12:34:43;;;;;;;10.30;9.30;;;6.60;93.60;;;;;;5088778;28;20263;-78
2021/01/25 12:37:09;;;;;;;8.93;8.13;;;6.50;94.30;;;;;;5088168;28;20270;-77
2021/01/25 12:39:35;;;;;;;8.65;7.75;;;6.60;93.90;;;;;;5098114;27;20226;-76
2021/01/25 12:42:00;;;;;;;8.68;7.85;;;6.70;93.70;;;;;;5112942;27;20200;-77